createdAt,value
2023-04-30T00:01:28.034Z,12.2
2023-04-30T00:02:33.211Z,12.2
2023-04-30T00:04:45.496Z,12.1
2023-04-30T00:08:03.901Z,12.1
2023-04-30T00:09:10.068Z,12.1
2023-04-30T00:10:16.365Z,12.1
2023-04-30T00:11:22.340Z,12
2023-04-30T00:12:28.524Z,12
2023-04-30T00:13:34.633Z,12
2023-04-30T00:14:39.798Z,12
2023-04-30T00:15:45.963Z,11.9
2023-04-30T00:16:52.077Z,11.9
2023-04-30T00:17:58.217Z,11.9
2023-04-30T00:19:04.404Z,11.9
2023-04-30T00:20:10.515Z,11.9
2023-04-30T00:23:28.987Z,11.8
2023-04-30T00:24:35.097Z,11.7
2023-04-30T00:25:41.227Z,11.7
2023-04-30T00:26:47.376Z,11.7
2023-04-30T00:27:53.545Z,11.7
2023-04-30T00:28:59.779Z,11.7
2023-04-30T00:30:06.166Z,11.7
2023-04-30T00:32:18.207Z,11.7
2023-04-30T00:35:36.633Z,11.6
2023-04-30T00:36:42.787Z,11.6
2023-04-30T00:37:48.928Z,11.6
2023-04-30T00:40:01.367Z,11.6
2023-04-30T00:42:13.621Z,11.6
2023-04-30T00:43:18.641Z,11.5
2023-04-30T00:45:30.938Z,11.5
2023-04-30T00:47:43.250Z,11.5
2023-04-30T00:48:49.395Z,11.5
2023-04-30T00:49:55.502Z,11.4
2023-04-30T00:51:01.660Z,11.5
2023-04-30T00:52:07.806Z,11.4
2023-04-30T00:53:13.951Z,11.4
2023-04-30T00:54:20.078Z,11.4
2023-04-30T00:56:32.398Z,11.4
2023-04-30T00:57:37.548Z,11.4
2023-04-30T00:58:43.692Z,11.4
2023-04-30T00:59:49.825Z,11.4
2023-04-30T01:00:56.035Z,11.4
2023-04-30T01:02:02.097Z,11.4
2023-04-30T01:03:08.238Z,11.4
2023-04-30T01:05:20.600Z,11.4
2023-04-30T01:06:26.674Z,11.4
2023-04-30T01:07:32.843Z,11.4
2023-04-30T01:08:38.977Z,11.3
2023-04-30T01:09:45.156Z,11.3
2023-04-30T01:10:51.242Z,11.3
2023-04-30T01:13:02.560Z,11.3
2023-04-30T01:14:08.695Z,11.3
2023-04-30T01:15:14.867Z,11.3
2023-04-30T01:16:20.982Z,11.3
2023-04-30T01:17:27.190Z,11.3
2023-04-30T01:18:33.268Z,11.3
2023-04-30T01:21:51.788Z,11.3
2023-04-30T01:22:57.841Z,11.3
2023-04-30T01:24:03.971Z,11.3
2023-04-30T01:25:10.131Z,11.2
2023-04-30T01:26:15.269Z,11.2
2023-04-30T01:27:21.418Z,11.2
2023-04-30T01:29:33.717Z,11.2
2023-04-30T01:30:39.941Z,11.2
2023-04-30T01:31:46.039Z,11.2
2023-04-30T01:32:52.131Z,11.2
2023-04-30T01:33:58.284Z,11.2
2023-04-30T01:35:04.428Z,11.2
2023-04-30T01:36:10.564Z,11.2
2023-04-30T01:37:16.715Z,11.2
2023-04-30T01:38:22.855Z,11.2
2023-04-30T01:39:29.039Z,11.2
2023-04-30T01:40:34.282Z,11.3
2023-04-30T01:41:40.401Z,11.3
2023-04-30T01:42:46.511Z,11.3
2023-04-30T01:43:52.656Z,11.3
2023-04-30T01:47:11.176Z,11.3
2023-04-30T01:48:16.358Z,11.3
2023-04-30T01:50:28.650Z,11.3
2023-04-30T01:51:34.754Z,11.4
2023-04-30T01:52:40.897Z,11.4
2023-04-30T01:53:47.041Z,11.4
2023-04-30T01:54:53.198Z,11.4
2023-04-30T01:55:59.324Z,11.4
2023-04-30T01:57:05.493Z,11.4
2023-04-30T01:58:11.616Z,11.4
2023-04-30T01:59:17.748Z,11.4
2023-04-30T02:00:23.987Z,11.4
2023-04-30T02:02:36.181Z,11.5
2023-04-30T02:04:47.495Z,11.5
2023-04-30T02:05:53.784Z,11.5
2023-04-30T02:06:59.790Z,11.5
2023-04-30T02:08:05.961Z,11.5
2023-04-30T02:09:12.062Z,11.5
2023-04-30T02:10:18.206Z,11.5
2023-04-30T02:11:24.337Z,11.5
2023-04-30T02:12:30.499Z,11.5
2023-04-30T02:13:36.675Z,11.5
2023-04-30T02:14:42.780Z,11.5
2023-04-30T02:16:55.056Z,11.5
2023-04-30T02:19:06.379Z,11.5
2023-04-30T02:21:18.656Z,11.5
2023-04-30T02:22:24.846Z,11.5
2023-04-30T02:24:37.097Z,11.5
2023-04-30T02:27:55.586Z,11.5
2023-04-30T02:29:01.651Z,11.5
2023-04-30T02:30:07.877Z,11.5
2023-04-30T02:31:13.938Z,11.5
2023-04-30T02:32:19.085Z,11.5
2023-04-30T02:33:25.285Z,11.5
2023-04-30T02:35:37.551Z,11.5
2023-04-30T02:36:43.676Z,11.5
2023-04-30T02:37:49.806Z,11.5
2023-04-30T02:38:55.966Z,11.5
2023-04-30T02:40:02.360Z,11.5
2023-04-30T02:41:08.267Z,11.5
2023-04-30T02:42:14.422Z,11.5
2023-04-30T02:43:20.591Z,11.5
2023-04-30T02:44:26.678Z,11.5
2023-04-30T02:45:32.867Z,11.5
2023-04-30T02:46:37.984Z,11.5
2023-04-30T02:47:44.224Z,11.5
2023-04-30T02:48:50.270Z,11.5
2023-04-30T02:52:08.688Z,11.5
2023-04-30T02:53:14.835Z,11.5
2023-04-30T02:54:20.982Z,11.4
2023-04-30T02:55:27.155Z,11.5
2023-04-30T02:56:33.276Z,11.4
2023-04-30T02:57:39.424Z,11.4
2023-04-30T02:58:45.563Z,11.4
2023-04-30T03:00:57.861Z,11.4
2023-04-30T03:02:02.981Z,11.4
2023-04-30T03:03:09.163Z,11.4
2023-04-30T03:04:15.341Z,11.4
2023-04-30T03:06:27.576Z,11.4
2023-04-30T03:08:39.862Z,11.4
2023-04-30T03:09:46.016Z,11.4
2023-04-30T03:10:52.205Z,11.4
2023-04-30T03:11:58.286Z,11.4
2023-04-30T03:13:04.440Z,11.4
2023-04-30T03:14:10.593Z,11.4
2023-04-30T03:15:16.789Z,11.4
2023-04-30T03:16:21.866Z,11.4
2023-04-30T03:17:28.026Z,11.4
2023-04-30T03:18:34.159Z,11.4
2023-04-30T03:19:40.310Z,11.4
2023-04-30T03:20:46.581Z,11.4
2023-04-30T03:21:52.595Z,11.4
2023-04-30T03:22:58.737Z,11.4
2023-04-30T03:25:11.066Z,11.4
2023-04-30T03:26:17.167Z,11.4
2023-04-30T03:27:23.383Z,11.4
2023-04-30T03:28:29.460Z,11.4
2023-04-30T03:29:35.593Z,11.4
2023-04-30T03:30:40.749Z,11.4
2023-04-30T03:31:45.963Z,11.4
2023-04-30T03:32:51.085Z,11.4
2023-04-30T03:33:57.264Z,11.4
2023-04-30T03:35:03.367Z,11.4
2023-04-30T03:36:09.578Z,11.4
2023-04-30T03:37:15.755Z,11.4
2023-04-30T03:39:28.032Z,11.4
2023-04-30T03:41:40.226Z,11.4
2023-04-30T03:42:46.405Z,11.4
2023-04-30T03:43:52.580Z,11.4
2023-04-30T03:44:58.683Z,11.3
2023-04-30T03:46:03.901Z,11.3
2023-04-30T03:47:09.068Z,11.3
2023-04-30T03:48:15.188Z,11.3
2023-04-30T03:49:21.391Z,11.3
2023-04-30T03:51:33.658Z,11.4
2023-04-30T03:52:39.809Z,11.4
2023-04-30T03:53:45.914Z,11.3
2023-04-30T03:54:52.100Z,11.3
2023-04-30T03:55:58.243Z,11.3
2023-04-30T03:58:09.447Z,11.3
2023-04-30T03:59:14.673Z,11.3
2023-04-30T04:00:20.980Z,11.3
2023-04-30T04:01:26.895Z,11.3
2023-04-30T04:02:33.111Z,11.3
2023-04-30T04:03:39.246Z,11.3
2023-04-30T04:05:51.479Z,11.3
2023-04-30T04:06:57.627Z,11.3
2023-04-30T04:08:03.840Z,11.3
2023-04-30T04:09:09.907Z,11.3
2023-04-30T04:10:16.189Z,11.3
2023-04-30T04:11:22.215Z,11.3
2023-04-30T04:12:28.402Z,11.3
2023-04-30T04:14:39.654Z,11.3
2023-04-30T04:15:45.795Z,11.3
2023-04-30T04:16:51.941Z,11.3
2023-04-30T04:17:58.081Z,11.3
2023-04-30T04:19:04.215Z,11.3
2023-04-30T04:20:10.439Z,11.3
2023-04-30T04:21:16.514Z,11.3
2023-04-30T04:22:22.655Z,11.3
2023-04-30T04:23:28.812Z,11.3
2023-04-30T04:25:41.139Z,11.3
2023-04-30T04:26:47.211Z,11.3
2023-04-30T04:27:52.416Z,11.3
2023-04-30T04:28:58.608Z,11.3
2023-04-30T04:31:10.886Z,11.3
2023-04-30T04:32:16.958Z,11.3
2023-04-30T04:33:23.095Z,11.3
2023-04-30T04:34:29.233Z,11.3
2023-04-30T04:35:35.367Z,11.3
2023-04-30T04:36:41.538Z,11.3
2023-04-30T04:38:53.860Z,11.3
2023-04-30T04:40:00.123Z,11.3
2023-04-30T04:41:06.235Z,11.3
2023-04-30T04:42:11.336Z,11.3
2023-04-30T04:43:17.403Z,11.3
2023-04-30T04:44:23.547Z,11.3
2023-04-30T04:45:29.682Z,11.3
2023-04-30T04:48:48.119Z,11.3
2023-04-30T04:49:54.243Z,11.3
2023-04-30T04:51:00.505Z,11.3
2023-04-30T04:52:06.542Z,11.3
2023-04-30T04:53:12.685Z,11.3
2023-04-30T04:55:24.999Z,11.3
2023-04-30T04:56:31.279Z,11.3
2023-04-30T04:57:37.375Z,11.3
2023-04-30T04:59:49.808Z,11.4
2023-04-30T05:00:55.800Z,11.3
2023-04-30T05:02:01.974Z,11.4
2023-04-30T05:04:14.329Z,11.3
2023-04-30T05:05:20.499Z,11.3
2023-04-30T05:06:26.598Z,11.3
2023-04-30T05:08:38.924Z,11.3
2023-04-30T05:09:45.079Z,11.3
2023-04-30T05:10:51.253Z,11.4
2023-04-30T05:11:57.416Z,11.3
2023-04-30T05:14:09.640Z,11.4
2023-04-30T05:15:15.813Z,11.4
2023-04-30T05:16:21.931Z,11.4
2023-04-30T05:17:28.089Z,11.4
2023-04-30T05:18:34.237Z,11.4
2023-04-30T05:20:46.592Z,11.5
2023-04-30T05:21:52.677Z,11.5
2023-04-30T05:22:58.840Z,11.5
2023-04-30T05:24:04.934Z,11.5
2023-04-30T05:25:10.131Z,11.5
2023-04-30T05:26:16.472Z,11.5
2023-04-30T05:27:22.395Z,11.6
2023-04-30T05:28:28.548Z,11.6
2023-04-30T05:29:34.827Z,11.6
2023-04-30T05:30:40.828Z,11.6
2023-04-30T05:31:47.085Z,11.6
2023-04-30T05:32:53.096Z,11.6
2023-04-30T05:35:05.389Z,11.5
2023-04-30T05:38:23.825Z,11.5
2023-04-30T05:39:29.952Z,11.4
2023-04-30T05:40:35.223Z,11.4
2023-04-30T05:41:41.319Z,11.4
2023-04-30T05:42:47.444Z,11.5
2023-04-30T05:43:53.538Z,11.5
2023-04-30T05:44:59.767Z,11.5
2023-04-30T05:46:05.878Z,11.5
2023-04-30T05:47:12.094Z,11.5
2023-04-30T05:48:18.181Z,11.5
2023-04-30T05:49:24.328Z,11.5
2023-04-30T05:51:36.704Z,11.5
2023-04-30T05:53:48.864Z,11.6
2023-04-30T05:54:54.021Z,11.6
2023-04-30T05:56:00.220Z,11.6
2023-04-30T05:57:06.317Z,11.6
2023-04-30T05:59:18.696Z,11.7
2023-04-30T06:00:24.777Z,11.7
2023-04-30T06:01:30.968Z,11.8
2023-04-30T06:02:37.089Z,11.9
2023-04-30T06:03:43.300Z,11.9
2023-04-30T06:04:49.285Z,12
2023-04-30T06:05:55.542Z,12
2023-04-30T06:07:01.687Z,12
2023-04-30T06:10:20.051Z,12.1
2023-04-30T06:11:25.221Z,12.1
2023-04-30T06:12:31.309Z,12.1
2023-04-30T06:14:43.620Z,12
2023-04-30T06:15:49.740Z,12.1
2023-04-30T06:16:55.880Z,12.1
2023-04-30T06:18:02.060Z,12
2023-04-30T06:21:20.466Z,12
2023-04-30T06:22:26.604Z,12
2023-04-30T06:24:38.988Z,12
2023-04-30T06:29:02.528Z,11.9
2023-04-30T06:30:08.749Z,11.9
2023-04-30T06:31:14.767Z,11.9
2023-04-30T06:32:20.898Z,11.9
2023-04-30T06:33:27.048Z,11.9
2023-04-30T06:34:33.200Z,11.9
2023-04-30T06:35:39.338Z,11.9
2023-04-30T06:37:51.623Z,11.9
2023-04-30T06:38:57.773Z,11.9
2023-04-30T06:40:03.001Z,11.8
2023-04-30T06:41:09.154Z,11.8
2023-04-30T06:43:21.503Z,11.9
2023-04-30T06:44:27.484Z,11.9
2023-04-30T06:45:33.668Z,11.9
2023-04-30T06:46:39.786Z,12
2023-04-30T06:48:52.077Z,12
2023-04-30T06:49:58.223Z,12
2023-04-30T06:51:04.399Z,12
2023-04-30T06:54:22.766Z,12.1
2023-04-30T06:55:27.942Z,12.1
2023-04-30T06:56:34.079Z,12.1
2023-04-30T06:57:40.266Z,12.1
2023-04-30T06:59:52.568Z,12.1
2023-04-30T07:00:58.770Z,12.2
2023-04-30T07:02:04.874Z,12.2
2023-04-30T07:04:17.168Z,12.2
2023-04-30T07:06:29.386Z,12.2
2023-04-30T07:07:35.535Z,12.2
2023-04-30T07:09:47.943Z,12.2
2023-04-30T07:10:52.966Z,12.3
2023-04-30T07:11:59.101Z,12.2
2023-04-30T07:17:29.815Z,12.3
2023-04-30T07:19:42.177Z,12.4
2023-04-30T07:20:48.250Z,12.4
2023-04-30T07:21:54.531Z,12.4
2023-04-30T07:23:00.520Z,12.4
2023-04-30T07:24:06.720Z,12.5
2023-04-30T07:25:11.833Z,12.5
2023-04-30T07:26:17.973Z,12.5
2023-04-30T07:27:24.135Z,12.4
2023-04-30T07:28:30.266Z,12.4
2023-04-30T07:32:54.908Z,12.4
2023-04-30T07:34:00.999Z,12.4
2023-04-30T07:35:07.122Z,12.4
2023-04-30T07:36:13.375Z,12.4
2023-04-30T07:38:25.616Z,12.5
2023-04-30T07:39:30.722Z,12.5
2023-04-30T07:41:42.089Z,12.5
2023-04-30T07:42:48.230Z,12.5
2023-04-30T07:46:05.624Z,12.7
2023-04-30T07:47:11.937Z,12.7
2023-04-30T07:49:24.162Z,12.8
2023-04-30T07:50:30.417Z,12.8
2023-04-30T07:51:36.662Z,12.8
2023-04-30T07:52:42.760Z,12.8
2023-04-30T07:54:54.883Z,12.7
2023-04-30T07:57:07.361Z,12.7
2023-04-30T07:58:13.377Z,12.7
2023-04-30T07:59:19.458Z,12.7
2023-04-30T08:01:31.865Z,12.7
2023-04-30T08:02:37.005Z,12.8
2023-04-30T08:03:43.243Z,12.9
2023-04-30T08:05:55.321Z,13
2023-04-30T08:07:01.473Z,13
2023-04-30T08:08:07.766Z,13
2023-04-30T08:09:13.839Z,13
2023-04-30T08:11:26.186Z,13.1
2023-04-30T08:12:32.177Z,13.3
2023-04-30T08:14:44.662Z,13.3
2023-04-30T08:15:50.778Z,13.4
2023-04-30T08:16:55.999Z,13.4
2023-04-30T08:18:02.075Z,13.4
2023-04-30T08:19:08.087Z,13.4
2023-04-30T08:20:14.349Z,13.4
2023-04-30T08:23:32.700Z,13.6
2023-04-30T08:25:45.030Z,13.6
2023-04-30T08:27:57.269Z,13.6
2023-04-30T08:31:15.675Z,13.7
2023-04-30T08:32:20.802Z,13.8
2023-04-30T08:33:26.937Z,13.8
2023-04-30T08:34:33.159Z,13.8
2023-04-30T08:35:39.225Z,13.8
2023-04-30T08:36:45.371Z,13.8
2023-04-30T08:38:57.801Z,13.8
2023-04-30T08:40:03.950Z,13.8
2023-04-30T08:41:09.929Z,13.8
2023-04-30T08:42:16.077Z,13.9
2023-04-30T08:43:22.298Z,14.1
2023-04-30T08:44:28.360Z,14.2
2023-04-30T08:45:34.607Z,14.4
2023-04-30T08:47:46.785Z,14.6
2023-04-30T08:49:58.236Z,14.7
2023-04-30T08:51:04.282Z,14.7
2023-04-30T08:52:10.394Z,14.7
2023-04-30T08:56:34.942Z,14.8
2023-04-30T08:57:41.146Z,14.9
2023-04-30T08:58:47.232Z,14.9
2023-04-30T08:59:53.629Z,14.9
2023-04-30T09:00:59.535Z,15.2
2023-04-30T09:03:11.832Z,15.4
2023-04-30T09:04:17.054Z,15.3
2023-04-30T09:05:23.170Z,15.2
2023-04-30T09:06:29.258Z,15.2
2023-04-30T09:08:41.540Z,15.3
2023-04-30T09:09:47.810Z,15.3
2023-04-30T09:11:59.966Z,15.7
2023-04-30T09:13:06.139Z,16.5
2023-04-30T09:14:12.254Z,17.1
2023-04-30T09:17:30.732Z,17.3
2023-04-30T09:19:42.063Z,16.6
2023-04-30T09:20:48.309Z,16.5
2023-04-30T09:24:06.674Z,16.2
2023-04-30T09:25:12.929Z,16.1
2023-04-30T09:26:18.966Z,15.9
2023-04-30T09:28:31.261Z,15.6
2023-04-30T09:29:37.395Z,15.6
2023-04-30T09:30:43.545Z,15.7
2023-04-30T09:31:49.716Z,15.7
2023-04-30T09:32:54.829Z,15.8
2023-04-30T09:34:01.044Z,16.1
2023-04-30T09:35:07.246Z,16.2
2023-04-30T09:36:13.273Z,16.2
2023-04-30T09:39:31.698Z,16.2
2023-04-30T09:40:38.027Z,16.2
2023-04-30T09:42:50.118Z,16.5
2023-04-30T09:45:02.549Z,16.4
2023-04-30T09:46:08.655Z,16.4
2023-04-30T09:48:19.856Z,17.1
2023-04-30T09:49:25.995Z,17.3
2023-04-30T09:50:32.133Z,17.9
2023-04-30T09:52:44.505Z,18.5
2023-04-30T09:53:50.663Z,18.5
2023-04-30T09:54:56.823Z,18.5
2023-04-30T09:56:03.015Z,18.4
2023-04-30T09:57:09.125Z,18.2
2023-04-30T09:58:15.134Z,18
2023-04-30T09:59:21.395Z,18.1
2023-04-30T10:01:33.654Z,18.1
2023-04-30T10:02:39.881Z,17.8
2023-04-30T10:03:46.051Z,17.4
2023-04-30T10:04:52.144Z,17.2
2023-04-30T10:05:58.391Z,17.8
2023-04-30T10:07:04.414Z,18.3
2023-04-30T10:08:10.545Z,19.3
2023-04-30T10:09:16.694Z,20.2
2023-04-30T10:10:22.869Z,20.6
2023-04-30T10:12:35.130Z,22.2
2023-04-30T10:13:41.320Z,22.9
2023-04-30T10:15:53.605Z,21.6
2023-04-30T10:18:04.848Z,21.5
2023-04-30T10:19:11.239Z,21.4
2023-04-30T10:20:17.147Z,22.3
2023-04-30T10:23:35.567Z,21.5
2023-04-30T10:24:41.708Z,20.6
2023-04-30T10:25:47.874Z,20.2
2023-04-30T10:26:54.003Z,20.7
2023-04-30T10:29:06.268Z,21.2
2023-04-30T10:30:12.485Z,22
2023-04-30T10:31:18.704Z,21.4
2023-04-30T10:32:24.833Z,20.7
2023-04-30T10:34:37.109Z,21.3
2023-04-30T10:35:43.265Z,21.5
2023-04-30T10:36:49.395Z,20.8
2023-04-30T10:40:07.976Z,18.5
2023-04-30T10:41:13.978Z,18.1
2023-04-30T10:42:20.107Z,17.9
2023-04-30T10:43:26.248Z,17.5
2023-04-30T10:44:32.399Z,17.4
2023-04-30T10:46:43.702Z,18.2
2023-04-30T10:47:49.855Z,18.3
2023-04-30T10:48:55.989Z,18.7
2023-04-30T10:51:08.269Z,18.7
2023-04-30T10:53:20.568Z,19.1
2023-04-30T10:54:26.798Z,20.1
2023-04-30T10:55:32.872Z,20.9
2023-04-30T10:56:38.988Z,20.5
2023-04-30T10:57:45.154Z,20.7
2023-04-30T10:58:51.283Z,21.6
2023-04-30T11:02:09.702Z,21.8
2023-04-30T11:03:14.875Z,21.7
2023-04-30T11:04:21.007Z,20.8
2023-04-30T11:07:39.451Z,21
2023-04-30T11:10:57.883Z,22.9
2023-04-30T11:12:04.021Z,22.6
2023-04-30T11:13:10.157Z,22.4
2023-04-30T11:14:16.306Z,21.8
2023-04-30T11:15:22.461Z,20.8
2023-04-30T11:16:28.580Z,20.3
2023-04-30T11:17:34.831Z,20.1
2023-04-30T11:18:40.990Z,20
2023-04-30T11:19:47.144Z,20.6
2023-04-30T11:20:53.340Z,21.2
2023-04-30T11:21:59.433Z,22.5
2023-04-30T11:26:24.061Z,24.2
2023-04-30T11:27:30.146Z,23.3
2023-04-30T11:28:36.514Z,23.4
2023-04-30T11:33:00.989Z,20.3
2023-04-30T11:34:07.135Z,19.9
2023-04-30T11:35:13.274Z,19.5
2023-04-30T11:36:19.412Z,19.4
2023-04-30T11:37:25.540Z,19.3
2023-04-30T11:41:50.202Z,18.4
2023-04-30T11:42:55.380Z,18.2
2023-04-30T11:44:01.511Z,18.3
2023-04-30T11:45:07.680Z,18.6
2023-04-30T11:46:13.837Z,19.1
2023-04-30T11:47:19.956Z,19.3
2023-04-30T11:49:32.290Z,19.2
2023-04-30T11:51:44.540Z,19.4
2023-04-30T11:52:50.685Z,19.3
2023-04-30T11:53:56.812Z,19
2023-04-30T11:55:02.962Z,18.9
2023-04-30T11:57:15.312Z,18.4
2023-04-30T11:58:21.517Z,18.3
2023-04-30T11:59:27.655Z,18.1
2023-04-30T12:00:33.800Z,18.1
2023-04-30T12:01:39.946Z,18.2
2023-04-30T12:02:46.084Z,18.2
2023-04-30T12:03:52.227Z,18.2
2023-04-30T12:04:58.374Z,18.2
2023-04-30T12:07:10.692Z,18.1
2023-04-30T12:08:16.809Z,18.2
2023-04-30T12:09:22.939Z,18.2
2023-04-30T12:10:29.328Z,18.1
2023-04-30T12:13:47.669Z,17.8
2023-04-30T12:15:58.898Z,17.7
2023-04-30T12:17:04.976Z,17.8
2023-04-30T12:18:11.109Z,17.9
2023-04-30T12:19:17.415Z,18
2023-04-30T12:20:23.552Z,18
2023-04-30T12:21:29.635Z,18.1
2023-04-30T12:22:35.695Z,18
2023-04-30T12:23:41.967Z,18.1
2023-04-30T12:24:48.042Z,18.1
2023-04-30T12:25:54.115Z,18.2
2023-04-30T12:27:00.249Z,18.2
2023-04-30T12:30:18.677Z,18.7
2023-04-30T12:31:23.850Z,18.7
2023-04-30T12:32:30.011Z,18.6
2023-04-30T12:33:36.133Z,18.5
2023-04-30T12:34:42.283Z,18.5
2023-04-30T12:35:48.422Z,18.4
2023-04-30T12:36:54.572Z,18.3
2023-04-30T12:40:13.004Z,18.4
2023-04-30T12:41:19.170Z,18.4
2023-04-30T12:42:25.274Z,18.4
2023-04-30T12:43:31.419Z,18.4
2023-04-30T12:44:37.659Z,18.4
2023-04-30T12:46:48.862Z,18.4
2023-04-30T12:47:55.069Z,18.3
2023-04-30T12:49:01.185Z,18.3
2023-04-30T12:50:07.505Z,18.2
2023-04-30T12:51:13.476Z,18.2
2023-04-30T12:52:19.642Z,18.1
2023-04-30T12:53:25.721Z,18
2023-04-30T12:54:31.858Z,18
2023-04-30T12:55:38.054Z,18.1
2023-04-30T12:56:44.134Z,18
2023-04-30T12:57:50.280Z,18
2023-04-30T12:58:56.437Z,18
2023-04-30T13:00:01.628Z,18.1
2023-04-30T13:01:07.721Z,18
2023-04-30T13:03:20.015Z,17.9
2023-04-30T13:04:26.186Z,17.9
2023-04-30T13:05:32.298Z,17.8
2023-04-30T13:07:44.648Z,17.6
2023-04-30T13:08:50.726Z,17.6
2023-04-30T13:09:56.881Z,17.6
2023-04-30T13:11:03.026Z,17.6
2023-04-30T13:12:09.222Z,17.5
2023-04-30T13:13:15.450Z,17.5
2023-04-30T13:14:21.444Z,17.6
2023-04-30T13:15:26.704Z,17.6
2023-04-30T13:16:32.744Z,17.6
2023-04-30T13:17:38.887Z,17.7
2023-04-30T13:22:03.607Z,18
2023-04-30T13:25:21.887Z,17.9
2023-04-30T13:27:34.189Z,17.9
2023-04-30T13:28:40.321Z,18
2023-04-30T13:30:51.664Z,18
2023-04-30T13:31:57.808Z,18.1
2023-04-30T13:33:03.902Z,18.1
2023-04-30T13:34:10.053Z,18.2
2023-04-30T13:37:28.488Z,18.1
2023-04-30T13:38:34.704Z,18
2023-04-30T13:39:40.891Z,17.9
2023-04-30T13:40:47.075Z,17.9
2023-04-30T13:41:53.046Z,17.9
2023-04-30T13:45:11.503Z,17.8
2023-04-30T13:46:16.628Z,17.8
2023-04-30T13:47:22.782Z,17.9
2023-04-30T13:48:28.918Z,17.8
2023-04-30T13:49:35.066Z,17.8
2023-04-30T13:50:41.237Z,17.9
2023-04-30T13:52:53.511Z,17.8
2023-04-30T13:55:05.780Z,17.8
2023-04-30T13:56:11.950Z,17.8
2023-04-30T13:58:24.221Z,17.8
2023-04-30T14:00:36.637Z,17.8
2023-04-30T14:03:53.992Z,17.7
2023-04-30T14:05:00.076Z,17.7
2023-04-30T14:06:06.247Z,17.7
2023-04-30T14:07:12.470Z,17.7
2023-04-30T14:10:30.795Z,17.7
2023-04-30T14:11:36.996Z,17.7
2023-04-30T14:12:43.081Z,17.6
2023-04-30T14:13:49.334Z,17.6
2023-04-30T14:14:55.392Z,17.6
2023-04-30T14:16:00.526Z,17.5
2023-04-30T14:17:06.665Z,17.5
2023-04-30T14:18:12.831Z,17.5
2023-04-30T14:19:18.993Z,17.5
2023-04-30T14:20:25.095Z,17.5
2023-04-30T14:21:31.264Z,17.5
2023-04-30T14:22:37.487Z,17.5
2023-04-30T14:23:43.557Z,17.4
2023-04-30T14:25:55.816Z,17.3
2023-04-30T14:27:02.019Z,17.4
2023-04-30T14:28:08.128Z,17.4
2023-04-30T14:29:14.252Z,17.4
2023-04-30T14:30:19.497Z,17.4
2023-04-30T14:31:25.552Z,17.3
2023-04-30T14:34:43.985Z,17.3
2023-04-30T14:35:50.106Z,17.3
2023-04-30T14:36:56.286Z,17.3
2023-04-30T14:38:02.456Z,17.2
2023-04-30T14:39:08.615Z,17.2
2023-04-30T14:42:26.989Z,17.1
2023-04-30T14:43:33.169Z,17.1
2023-04-30T14:44:38.273Z,17.1
2023-04-30T14:45:44.447Z,17.1
2023-04-30T14:46:50.583Z,17.1
2023-04-30T14:47:56.712Z,17
2023-04-30T14:49:02.856Z,17
2023-04-30T14:50:08.990Z,16.9
2023-04-30T14:51:15.197Z,16.9
2023-04-30T14:52:21.289Z,16.9
2023-04-30T14:53:27.424Z,16.9
2023-04-30T14:54:33.577Z,16.9
2023-04-30T14:55:39.766Z,17
2023-04-30T14:56:45.897Z,16.9
2023-04-30T14:58:58.143Z,17
2023-04-30T15:00:03.282Z,16.9
2023-04-30T15:01:09.514Z,16.9
2023-04-30T15:02:15.579Z,16.9
2023-04-30T15:04:27.913Z,16.9
2023-04-30T15:05:34.020Z,16.9
2023-04-30T15:06:40.149Z,16.9
2023-04-30T15:07:46.303Z,16.9
2023-04-30T15:08:52.446Z,16.9
2023-04-30T15:11:03.760Z,16.9
2023-04-30T15:16:33.488Z,17
2023-04-30T15:17:39.799Z,17
2023-04-30T15:18:45.992Z,17
2023-04-30T15:19:52.238Z,17
2023-04-30T15:20:58.395Z,17
2023-04-30T15:22:04.379Z,17
2023-04-30T15:24:16.616Z,17
2023-04-30T15:25:22.783Z,16.9
2023-04-30T15:26:28.934Z,16.9
2023-04-30T15:27:35.089Z,16.9
2023-04-30T15:28:41.188Z,16.9
2023-04-30T15:33:05.788Z,16.9
2023-04-30T15:34:10.943Z,16.9
2023-04-30T15:35:17.057Z,16.9
2023-04-30T15:36:23.282Z,16.9
2023-04-30T15:37:29.429Z,16.8
2023-04-30T15:39:41.719Z,16.7
2023-04-30T15:40:47.871Z,16.7
2023-04-30T15:41:53.916Z,16.7
2023-04-30T15:44:06.193Z,16.6
2023-04-30T15:45:12.415Z,16.7
2023-04-30T15:46:18.502Z,16.6
2023-04-30T15:48:30.790Z,16.6
2023-04-30T15:49:35.919Z,16.6
2023-04-30T15:51:48.245Z,16.6
2023-04-30T15:52:54.386Z,16.6
2023-04-30T15:55:06.669Z,16.6
2023-04-30T15:56:12.805Z,16.5
2023-04-30T15:57:18.933Z,16.5
2023-04-30T15:58:25.080Z,16.5
2023-04-30T15:59:31.347Z,16.5
2023-04-30T16:00:37.412Z,16.5
2023-04-30T16:01:43.603Z,16.5
2023-04-30T16:05:02.027Z,16.5
2023-04-30T16:06:07.099Z,16.4
2023-04-30T16:07:13.257Z,16.4
2023-04-30T16:09:25.525Z,16.4
2023-04-30T16:10:31.738Z,16.5
2023-04-30T16:11:37.814Z,16.4
2023-04-30T16:12:43.954Z,16.4
2023-04-30T16:13:50.113Z,16.4
2023-04-30T16:14:56.245Z,16.4
2023-04-30T16:16:02.386Z,16.4
2023-04-30T16:17:08.534Z,16.4
2023-04-30T16:18:14.696Z,16.4
2023-04-30T16:19:20.835Z,16.4
2023-04-30T16:21:32.131Z,16.4
2023-04-30T16:22:38.333Z,16.4
2023-04-30T16:23:44.412Z,16.4
2023-04-30T16:24:50.612Z,16.3
2023-04-30T16:25:56.709Z,16.3
2023-04-30T16:27:02.844Z,16.4
2023-04-30T16:28:09.005Z,16.3
2023-04-30T16:29:15.167Z,16.3
2023-04-30T16:30:21.322Z,16.3
2023-04-30T16:31:27.394Z,16.3
2023-04-30T16:32:32.579Z,16.3
2023-04-30T16:33:37.750Z,16.3
2023-04-30T16:34:43.882Z,16.3
2023-04-30T16:35:50.026Z,16.3
2023-04-30T16:38:02.308Z,16.3
2023-04-30T16:39:08.503Z,16.3
2023-04-30T16:40:14.683Z,16.2
2023-04-30T16:42:26.908Z,16.2
2023-04-30T16:43:33.065Z,16.2
2023-04-30T16:44:39.167Z,16.2
2023-04-30T16:45:45.305Z,16.2
2023-04-30T16:46:50.498Z,16.2
2023-04-30T16:47:55.659Z,16.2
2023-04-30T16:49:01.779Z,16.2
2023-04-30T16:50:07.927Z,16.1
2023-04-30T16:51:14.127Z,16.1
2023-04-30T16:52:20.231Z,16.1
2023-04-30T16:54:32.508Z,16.1
2023-04-30T16:55:38.632Z,16.1
2023-04-30T16:57:50.935Z,16.1
2023-04-30T16:58:57.060Z,16.1
2023-04-30T17:00:03.198Z,16.1
2023-04-30T17:01:09.371Z,16.1
2023-04-30T17:03:20.653Z,16
2023-04-30T17:04:26.961Z,16
2023-04-30T17:05:32.966Z,16
2023-04-30T17:06:39.091Z,16
2023-04-30T17:08:51.419Z,16
2023-04-30T17:11:03.647Z,16
2023-04-30T17:12:09.787Z,16
2023-04-30T17:13:15.955Z,16
2023-04-30T17:14:22.073Z,15.9
2023-04-30T17:15:28.215Z,15.9
2023-04-30T17:16:33.454Z,15.9
2023-04-30T17:17:39.526Z,15.9
2023-04-30T17:18:45.665Z,15.9
2023-04-30T17:19:51.914Z,15.9
2023-04-30T17:20:58.085Z,15.8
2023-04-30T17:22:04.125Z,15.8
2023-04-30T17:23:10.260Z,15.8
2023-04-30T17:24:16.509Z,15.8
2023-04-30T17:25:22.522Z,15.8
2023-04-30T17:27:34.849Z,15.7
2023-04-30T17:28:40.946Z,15.7
2023-04-30T17:29:47.091Z,15.7
2023-04-30T17:30:52.422Z,15.7
2023-04-30T17:31:58.493Z,15.7
2023-04-30T17:33:04.538Z,15.7
2023-04-30T17:34:09.725Z,15.7
2023-04-30T17:35:14.869Z,15.7
2023-04-30T17:36:21.028Z,15.7
2023-04-30T17:37:27.178Z,15.7
2023-04-30T17:44:04.140Z,15.6
2023-04-30T17:45:10.242Z,15.6
2023-04-30T17:46:16.305Z,15.6
2023-04-30T17:48:28.593Z,15.6
2023-04-30T17:49:33.770Z,15.6
2023-04-30T17:51:46.040Z,15.5
2023-04-30T17:52:52.199Z,15.5
2023-04-30T17:55:03.494Z,15.5
2023-04-30T17:56:08.672Z,15.5
2023-04-30T18:00:32.256Z,15.4
2023-04-30T18:01:38.394Z,15.4
2023-04-30T18:03:50.696Z,15.4
2023-04-30T18:04:56.831Z,15.4
2023-04-30T18:06:02.967Z,15.4
2023-04-30T18:08:15.251Z,15.4
2023-04-30T18:10:27.656Z,15.3
2023-04-30T18:11:32.746Z,15.3
2023-04-30T18:12:38.888Z,15.3
2023-04-30T18:13:45.005Z,15.3
2023-04-30T18:14:51.181Z,15.3
2023-04-30T18:18:09.559Z,15.3
2023-04-30T18:22:34.128Z,15.2
2023-04-30T18:23:40.269Z,15.2
2023-04-30T18:24:46.416Z,15.2
2023-04-30T18:26:58.770Z,15.2
2023-04-30T18:28:04.957Z,15.2
2023-04-30T18:29:10.233Z,15.1
2023-04-30T18:31:22.491Z,15.1
2023-04-30T18:33:34.594Z,15.1
2023-04-30T18:34:40.769Z,15.1
2023-04-30T18:35:47.030Z,15.1
2023-04-30T18:36:53.004Z,15.1
2023-04-30T18:37:59.282Z,15.1
2023-04-30T18:39:05.369Z,15.1
2023-04-30T18:40:11.436Z,15.1
2023-04-30T18:41:17.672Z,15
2023-04-30T18:42:23.767Z,15
2023-04-30T18:44:35.014Z,15
2023-04-30T18:45:41.190Z,15
2023-04-30T18:46:47.318Z,15
2023-04-30T18:47:53.445Z,15
2023-04-30T18:50:05.875Z,15
2023-04-30T18:51:11.899Z,15
2023-04-30T18:52:18.011Z,15
2023-04-30T18:53:24.282Z,15
2023-04-30T18:54:30.304Z,14.9
2023-04-30T18:55:36.458Z,14.9
2023-04-30T18:56:42.599Z,14.9
2023-04-30T18:57:48.851Z,14.9
2023-04-30T18:58:54.038Z,14.9
2023-04-30T19:00:00.291Z,14.9
2023-04-30T19:01:06.306Z,14.9
2023-04-30T19:02:12.458Z,14.8
2023-04-30T19:03:18.645Z,14.9
2023-04-30T19:04:24.764Z,14.9
2023-04-30T19:06:37.058Z,14.9
2023-04-30T19:07:43.176Z,14.8
2023-04-30T19:08:49.308Z,14.8
2023-04-30T19:09:55.505Z,14.8
2023-04-30T19:12:07.806Z,14.8